Terminal Aerodrome Forecast
Issued by NWS Medford, OR

Home | Current Version | Previous Version | Text Only | Print | Product List | Glossary On
Versions: 1 2 3 4 5 6 7 8 9 10 11 12 13 14 15 16 17 18
750
FTUS46 KMFR 082355 AAA
TAFMFR
TAF AMD
KMFR 082355Z 0900/0924 15020G25KT P6SM SKC
     FM090200 01006KT P6SM SKC WS015/13035KT=

USA.gov is the U.S. government's official web portal to all federal, state and local government web resources and services.